sensor_id;sensor_type;location;lat;lon;timestamp;temperature;humidity
62583;DHT22;48641;51.676;5.808;2024-02-04T00:00:28;16.10;59.20
62583;DHT22;48641;51.676;5.808;2024-02-04T00:02:54;16.10;59.20
62583;DHT22;48641;51.676;5.808;2024-02-04T00:05:20;16.20;60.20
62583;DHT22;48641;51.676;5.808;2024-02-04T00:07:46;16.20;59.20
62583;DHT22;48641;51.676;5.808;2024-02-04T00:10:12;16.20;59.20
62583;DHT22;48641;51.676;5.808;2024-02-04T00:12:38;16.20;59.20
62583;DHT22;48641;51.676;5.808;2024-02-04T00:15:04;16.20;59.20
62583;DHT22;48641;51.676;5.808;2024-02-04T00:17:30;16.10;59.20
62583;DHT22;48641;51.676;5.808;2024-02-04T00:19:58;16.20;59.20
62583;DHT22;48641;51.676;5.808;2024-02-04T00:22:24;16.10;59.20
62583;DHT22;48641;51.676;5.808;2024-02-04T00:24:50;16.10;59.20
62583;DHT22;48641;51.676;5.808;2024-02-04T00:27:16;16.10;59.20
62583;DHT22;48641;51.676;5.808;2024-02-04T00:29:41;16.10;59.20
62583;DHT22;48641;51.676;5.808;2024-02-04T00:32:07;16.10;59.20
62583;DHT22;48641;51.676;5.808;2024-02-04T00:34:32;16.20;59.20
62583;DHT22;48641;51.676;5.808;2024-02-04T00:36:58;16.20;59.20
62583;DHT22;48641;51.676;5.808;2024-02-04T00:39:24;16.10;59.60
62583;DHT22;48641;51.676;5.808;2024-02-04T00:41:50;16.10;59.20
62583;DHT22;48641;51.676;5.808;2024-02-04T00:44:15;16.10;59.30
62583;DHT22;48641;51.676;5.808;2024-02-04T00:46:41;16.10;59.50
62583;DHT22;48641;51.676;5.808;2024-02-04T00:49:06;16.10;59.20
62583;DHT22;48641;51.676;5.808;2024-02-04T00:51:32;16.10;59.20
62583;DHT22;48641;51.676;5.808;2024-02-04T00:53:58;16.20;59.60
62583;DHT22;48641;51.676;5.808;2024-02-04T00:56:24;16.20;59.40
62583;DHT22;48641;51.676;5.808;2024-02-04T00:58:49;16.10;59.50
62583;DHT22;48641;51.676;5.808;2024-02-04T01:01:15;16.10;59.50
62583;DHT22;48641;51.676;5.808;2024-02-04T01:03:40;16.10;59.70
62583;DHT22;48641;51.676;5.808;2024-02-04T01:06:06;16.20;59.90
62583;DHT22;48641;51.676;5.808;2024-02-04T01:08:32;16.10;59.90
62583;DHT22;48641;51.676;5.808;2024-02-04T01:11:00;16.10;59.70
62583;DHT22;48641;51.676;5.808;2024-02-04T01:13:25;16.10;59.80
62583;DHT22;48641;51.676;5.808;2024-02-04T01:15:51;16.20;59.80
62583;DHT22;48641;51.676;5.808;2024-02-04T01:18:16;16.10;59.80
62583;DHT22;48641;51.676;5.808;2024-02-04T01:20:42;16.10;60.00
62583;DHT22;48641;51.676;5.808;2024-02-04T01:23:08;16.20;59.80
62583;DHT22;48641;51.676;5.808;2024-02-04T01:25:34;16.20;60.10
62583;DHT22;48641;51.676;5.808;2024-02-04T01:27:59;16.10;59.80
62583;DHT22;48641;51.676;5.808;2024-02-04T01:30:25;16.10;59.70
62583;DHT22;48641;51.676;5.808;2024-02-04T01:32:50;16.10;60.00
62583;DHT22;48641;51.676;5.808;2024-02-04T01:35:16;16.10;59.70
62583;DHT22;48641;51.676;5.808;2024-02-04T01:37:41;16.10;59.60
62583;DHT22;48641;51.676;5.808;2024-02-04T01:40:09;16.10;59.70
62583;DHT22;48641;51.676;5.808;2024-02-04T01:42:35;16.10;60.10
62583;DHT22;48641;51.676;5.808;2024-02-04T01:45:00;16.10;59.90
62583;DHT22;48641;51.676;5.808;2024-02-04T01:47:26;16.10;59.80
62583;DHT22;48641;51.676;5.808;2024-02-04T01:49:52;16.10;59.80
62583;DHT22;48641;51.676;5.808;2024-02-04T01:52:18;16.10;59.70
62583;DHT22;48641;51.676;5.808;2024-02-04T01:54:44;16.10;59.70
62583;DHT22;48641;51.676;5.808;2024-02-04T01:57:10;16.10;59.80
62583;DHT22;48641;51.676;5.808;2024-02-04T01:59:38;16.10;59.70
62583;DHT22;48641;51.676;5.808;2024-02-04T02:02:05;16.10;59.50
62583;DHT22;48641;51.676;5.808;2024-02-04T02:04:31;16.10;59.80
62583;DHT22;48641;51.676;5.808;2024-02-04T02:06:57;16.10;59.60
62583;DHT22;48641;51.676;5.808;2024-02-04T02:09:25;16.10;59.60
62583;DHT22;48641;51.676;5.808;2024-02-04T02:14:46;16.10;59.70
62583;DHT22;48641;51.676;5.808;2024-02-04T02:17:19;16.10;59.80
62583;DHT22;48641;51.676;5.808;2024-02-04T02:23:14;16.10;59.80
62583;DHT22;48641;51.676;5.808;2024-02-04T02:25:42;16.10;60.00
62583;DHT22;48641;51.676;5.808;2024-02-04T02:28:08;16.00;60.60
62583;DHT22;48641;51.676;5.808;2024-02-04T02:30:35;16.10;59.70
62583;DHT22;48641;51.676;5.808;2024-02-04T02:33:00;16.10;59.60
62583;DHT22;48641;51.676;5.808;2024-02-04T02:35:26;16.10;59.60
62583;DHT22;48641;51.676;5.808;2024-02-04T02:38:10;16.10;59.60
62583;DHT22;48641;51.676;5.808;2024-02-04T02:40:45;16.10;59.80
62583;DHT22;48641;51.676;5.808;2024-02-04T02:43:13;16.10;59.70
62583;DHT22;48641;51.676;5.808;2024-02-04T02:45:42;16.10;59.60
62583;DHT22;48641;51.676;5.808;2024-02-04T02:48:08;16.10;59.90
62583;DHT22;48641;51.676;5.808;2024-02-04T02:50:35;16.10;59.80
62583;DHT22;48641;51.676;5.808;2024-02-04T02:53:01;16.00;59.80
62583;DHT22;48641;51.676;5.808;2024-02-04T02:55:26;16.10;59.70
62583;DHT22;48641;51.676;5.808;2024-02-04T02:57:52;16.10;59.80
62583;DHT22;48641;51.676;5.808;2024-02-04T03:00:18;16.10;59.80
62583;DHT22;48641;51.676;5.808;2024-02-04T03:02:43;16.10;59.80
62583;DHT22;48641;51.676;5.808;2024-02-04T03:05:09;16.10;59.80
62583;DHT22;48641;51.676;5.808;2024-02-04T03:07:35;16.10;59.70
62583;DHT22;48641;51.676;5.808;2024-02-04T03:10:01;16.10;59.80
62583;DHT22;48641;51.676;5.808;2024-02-04T03:12:26;16.10;59.90
62583;DHT22;48641;51.676;5.808;2024-02-04T03:14:52;16.10;59.70
62583;DHT22;48641;51.676;5.808;2024-02-04T03:17:17;16.10;59.90
62583;DHT22;48641;51.676;5.808;2024-02-04T03:19:49;16.10;59.70
62583;DHT22;48641;51.676;5.808;2024-02-04T03:22:17;16.10;59.80
62583;DHT22;48641;51.676;5.808;2024-02-04T03:24:43;16.10;60.00
62583;DHT22;48641;51.676;5.808;2024-02-04T03:27:08;16.10;59.90
62583;DHT22;48641;51.676;5.808;2024-02-04T03:29:34;16.10;59.60
62583;DHT22;48641;51.676;5.808;2024-02-04T03:32:00;16.10;59.50
62583;DHT22;48641;51.676;5.808;2024-02-04T03:34:25;16.10;59.70
62583;DHT22;48641;51.676;5.808;2024-02-04T03:36:51;16.10;59.50
62583;DHT22;48641;51.676;5.808;2024-02-04T03:39:16;16.10;59.50
62583;DHT22;48641;51.676;5.808;2024-02-04T03:41:42;16.10;59.50
62583;DHT22;48641;51.676;5.808;2024-02-04T03:44:07;16.10;59.60
62583;DHT22;48641;51.676;5.808;2024-02-04T03:46:33;16.10;59.60
62583;DHT22;48641;51.676;5.808;2024-02-04T03:48:58;16.10;59.50
62583;DHT22;48641;51.676;5.808;2024-02-04T03:51:24;16.10;59.70
62583;DHT22;48641;51.676;5.808;2024-02-04T03:53:50;16.10;60.00
62583;DHT22;48641;51.676;5.808;2024-02-04T03:56:17;16.10;59.70
62583;DHT22;48641;51.676;5.808;2024-02-04T03:58:43;16.10;59.60
62583;DHT22;48641;51.676;5.808;2024-02-04T04:01:12;16.10;59.50
62583;DHT22;48641;51.676;5.808;2024-02-04T04:03:41;16.10;59.80
62583;DHT22;48641;51.676;5.808;2024-02-04T04:06:08;16.00;59.90
62583;DHT22;48641;51.676;5.808;2024-02-04T04:08:34;16.10;59.90
62583;DHT22;48641;51.676;5.808;2024-02-04T04:11:00;16.10;59.60
62583;DHT22;48641;51.676;5.808;2024-02-04T04:13:26;16.10;60.50
62583;DHT22;48641;51.676;5.808;2024-02-04T04:15:51;16.10;59.80
62583;DHT22;48641;51.676;5.808;2024-02-04T04:18:17;16.10;60.00
62583;DHT22;48641;51.676;5.808;2024-02-04T04:20:43;16.10;59.90
62583;DHT22;48641;51.676;5.808;2024-02-04T04:23:12;16.10;59.70
62583;DHT22;48641;51.676;5.808;2024-02-04T04:25:38;16.10;60.10
62583;DHT22;48641;51.676;5.808;2024-02-04T04:28:04;16.00;59.60
62583;DHT22;48641;51.676;5.808;2024-02-04T04:30:29;16.00;59.60
62583;DHT22;48641;51.676;5.808;2024-02-04T04:32:56;16.00;59.70
62583;DHT22;48641;51.676;5.808;2024-02-04T04:35:22;16.10;59.60
62583;DHT22;48641;51.676;5.808;2024-02-04T04:37:47;16.10;59.70
62583;DHT22;48641;51.676;5.808;2024-02-04T04:40:13;16.00;59.50
62583;DHT22;48641;51.676;5.808;2024-02-04T04:42:38;16.00;59.40
62583;DHT22;48641;51.676;5.808;2024-02-04T04:45:04;16.00;59.30
62583;DHT22;48641;51.676;5.808;2024-02-04T04:47:30;16.00;59.30
62583;DHT22;48641;51.676;5.808;2024-02-04T04:49:56;16.00;59.40
62583;DHT22;48641;51.676;5.808;2024-02-04T04:52:21;16.00;59.30
62583;DHT22;48641;51.676;5.808;2024-02-04T04:54:48;16.00;60.20
62583;DHT22;48641;51.676;5.808;2024-02-04T04:57:13;16.00;59.20
62583;DHT22;48641;51.676;5.808;2024-02-04T04:59:39;16.00;59.40
62583;DHT22;48641;51.676;5.808;2024-02-04T05:02:05;16.00;59.40
62583;DHT22;48641;51.676;5.808;2024-02-04T05:04:31;16.00;59.20
62583;DHT22;48641;51.676;5.808;2024-02-04T05:06:56;16.00;59.30
62583;DHT22;48641;51.676;5.808;2024-02-04T05:09:22;16.00;59.20
62583;DHT22;48641;51.676;5.808;2024-02-04T05:11:47;16.00;59.20
62583;DHT22;48641;51.676;5.808;2024-02-04T05:14:13;16.00;59.20
62583;DHT22;48641;51.676;5.808;2024-02-04T05:16:38;16.00;59.30
62583;DHT22;48641;51.676;5.808;2024-02-04T05:19:04;16.00;59.20
62583;DHT22;48641;51.676;5.808;2024-02-04T05:21:30;16.00;60.20
62583;DHT22;48641;51.676;5.808;2024-02-04T05:23:55;16.00;59.20
62583;DHT22;48641;51.676;5.808;2024-02-04T05:26:21;16.00;59.20
62583;DHT22;48641;51.676;5.808;2024-02-04T05:28:46;16.00;59.40
62583;DHT22;48641;51.676;5.808;2024-02-04T05:31:12;16.00;59.40
62583;DHT22;48641;51.676;5.808;2024-02-04T05:33:37;16.00;59.20
62583;DHT22;48641;51.676;5.808;2024-02-04T05:36:03;16.00;59.20
62583;DHT22;48641;51.676;5.808;2024-02-04T05:38:30;16.00;59.40
62583;DHT22;48641;51.676;5.808;2024-02-04T05:40:55;16.00;59.20
62583;DHT22;48641;51.676;5.808;2024-02-04T05:43:21;16.00;59.20
62583;DHT22;48641;51.676;5.808;2024-02-04T05:45:46;16.00;59.30
62583;DHT22;48641;51.676;5.808;2024-02-04T05:48:12;16.00;59.20
62583;DHT22;48641;51.676;5.808;2024-02-04T05:50:38;16.00;59.20
62583;DHT22;48641;51.676;5.808;2024-02-04T05:53:04;16.00;59.10
62583;DHT22;48641;51.676;5.808;2024-02-04T05:55:30;16.00;59.20
62583;DHT22;48641;51.676;5.808;2024-02-04T05:57:55;16.00;59.30
62583;DHT22;48641;51.676;5.808;2024-02-04T06:00:21;16.00;59.30
62583;DHT22;48641;51.676;5.808;2024-02-04T06:02:47;16.00;59.40
62583;DHT22;48641;51.676;5.808;2024-02-04T06:05:13;16.00;59.40
62583;DHT22;48641;51.676;5.808;2024-02-04T06:07:39;16.00;59.40
62583;DHT22;48641;51.676;5.808;2024-02-04T06:10:08;16.00;59.30
62583;DHT22;48641;51.676;5.808;2024-02-04T06:12:33;16.00;59.40
62583;DHT22;48641;51.676;5.808;2024-02-04T06:14:59;16.00;59.40
62583;DHT22;48641;51.676;5.808;2024-02-04T06:17:24;16.00;59.20
62583;DHT22;48641;51.676;5.808;2024-02-04T06:19:50;16.00;59.30
62583;DHT22;48641;51.676;5.808;2024-02-04T06:22:16;16.00;59.60
62583;DHT22;48641;51.676;5.808;2024-02-04T06:24:41;16.00;59.40
62583;DHT22;48641;51.676;5.808;2024-02-04T06:27:08;16.00;59.50
62583;DHT22;48641;51.676;5.808;2024-02-04T06:29:33;16.00;59.30
62583;DHT22;48641;51.676;5.808;2024-02-04T06:31:59;16.00;59.20
62583;DHT22;48641;51.676;5.808;2024-02-04T06:34:25;16.00;59.50
62583;DHT22;48641;51.676;5.808;2024-02-04T06:36:51;16.00;59.50
62583;DHT22;48641;51.676;5.808;2024-02-04T06:39:16;16.00;59.60
62583;DHT22;48641;51.676;5.808;2024-02-04T06:41:42;16.00;59.30
62583;DHT22;48641;51.676;5.808;2024-02-04T06:44:08;16.00;59.20
62583;DHT22;48641;51.676;5.808;2024-02-04T06:46:33;16.00;59.30
62583;DHT22;48641;51.676;5.808;2024-02-04T06:48:59;16.00;59.40
62583;DHT22;48641;51.676;5.808;2024-02-04T06:51:24;16.00;59.20
62583;DHT22;48641;51.676;5.808;2024-02-04T06:53:50;16.00;59.30
62583;DHT22;48641;51.676;5.808;2024-02-04T06:56:16;16.00;59.30
62583;DHT22;48641;51.676;5.808;2024-02-04T06:58:41;16.00;59.20
62583;DHT22;48641;51.676;5.808;2024-02-04T07:01:07;16.00;60.50
62583;DHT22;48641;51.676;5.808;2024-02-04T07:03:33;16.00;59.40
62583;DHT22;48641;51.676;5.808;2024-02-04T07:06:00;16.00;59.30
62583;DHT22;48641;51.676;5.808;2024-02-04T07:08:26;16.00;60.30
62583;DHT22;48641;51.676;5.808;2024-02-04T07:10:51;16.00;59.40
62583;DHT22;48641;51.676;5.808;2024-02-04T07:13:17;16.00;59.20
62583;DHT22;48641;51.676;5.808;2024-02-04T07:15:43;16.00;59.30
62583;DHT22;48641;51.676;5.808;2024-02-04T07:18:09;16.00;59.60
62583;DHT22;48641;51.676;5.808;2024-02-04T07:20:35;16.00;59.40
62583;DHT22;48641;51.676;5.808;2024-02-04T07:23:00;16.00;59.80
62583;DHT22;48641;51.676;5.808;2024-02-04T07:25:26;16.00;59.90
62583;DHT22;48641;51.676;5.808;2024-02-04T07:27:51;16.00;60.20
62583;DHT22;48641;51.676;5.808;2024-02-04T07:30:17;16.00;60.40
62583;DHT22;48641;51.676;5.808;2024-02-04T07:32:43;16.00;60.50
62583;DHT22;48641;51.676;5.808;2024-02-04T07:35:10;16.00;60.60
62583;DHT22;48641;51.676;5.808;2024-02-04T07:37:35;16.00;60.70
62583;DHT22;48641;51.676;5.808;2024-02-04T07:40:01;16.00;60.70
62583;DHT22;48641;51.676;5.808;2024-02-04T07:42:27;16.00;60.60
62583;DHT22;48641;51.676;5.808;2024-02-04T07:44:53;16.00;60.60
62583;DHT22;48641;51.676;5.808;2024-02-04T07:47:19;16.00;60.60
62583;DHT22;48641;51.676;5.808;2024-02-04T07:49:47;16.00;60.60
62583;DHT22;48641;51.676;5.808;2024-02-04T07:52:13;16.00;60.60
62583;DHT22;48641;51.676;5.808;2024-02-04T07:54:39;16.00;60.60
62583;DHT22;48641;51.676;5.808;2024-02-04T07:57:04;16.00;60.50
62583;DHT22;48641;51.676;5.808;2024-02-04T07:59:30;16.00;60.50
62583;DHT22;48641;51.676;5.808;2024-02-04T08:01:56;16.00;60.50
62583;DHT22;48641;51.676;5.808;2024-02-04T08:04:21;16.00;60.40
62583;DHT22;48641;51.676;5.808;2024-02-04T08:06:47;16.00;60.50
62583;DHT22;48641;51.676;5.808;2024-02-04T08:09:12;16.00;60.50
62583;DHT22;48641;51.676;5.808;2024-02-04T08:11:38;16.00;60.50
62583;DHT22;48641;51.676;5.808;2024-02-04T08:14:04;16.00;60.50
62583;DHT22;48641;51.676;5.808;2024-02-04T08:16:29;16.00;60.50
62583;DHT22;48641;51.676;5.808;2024-02-04T08:18:55;16.00;60.50
62583;DHT22;48641;51.676;5.808;2024-02-04T08:21:21;16.10;60.60
62583;DHT22;48641;51.676;5.808;2024-02-04T08:23:47;16.10;60.60
62583;DHT22;48641;51.676;5.808;2024-02-04T08:26:12;16.00;60.50
62583;DHT22;48641;51.676;5.808;2024-02-04T08:28:38;16.00;60.50
62583;DHT22;48641;51.676;5.808;2024-02-04T08:31:04;16.00;60.50
62583;DHT22;48641;51.676;5.808;2024-02-04T08:33:29;16.00;60.40
62583;DHT22;48641;51.676;5.808;2024-02-04T08:35:55;16.10;60.50
62583;DHT22;48641;51.676;5.808;2024-02-04T08:38:20;16.10;60.50
62583;DHT22;48641;51.676;5.808;2024-02-04T08:40:47;16.00;60.50
62583;DHT22;48641;51.676;5.808;2024-02-04T08:43:12;16.10;60.50
62583;DHT22;48641;51.676;5.808;2024-02-04T08:45:38;16.10;60.50
62583;DHT22;48641;51.676;5.808;2024-02-04T08:48:04;16.00;60.40
62583;DHT22;48641;51.676;5.808;2024-02-04T08:50:30;16.10;60.40
62583;DHT22;48641;51.676;5.808;2024-02-04T08:52:55;16.00;60.40
62583;DHT22;48641;51.676;5.808;2024-02-04T08:55:21;16.00;60.40
62583;DHT22;48641;51.676;5.808;2024-02-04T08:57:46;16.00;60.40
62583;DHT22;48641;51.676;5.808;2024-02-04T09:00:14;16.10;60.50
62583;DHT22;48641;51.676;5.808;2024-02-04T09:02:40;16.00;60.50
62583;DHT22;48641;51.676;5.808;2024-02-04T09:05:06;16.10;60.50
62583;DHT22;48641;51.676;5.808;2024-02-04T09:07:31;16.00;60.40
62583;DHT22;48641;51.676;5.808;2024-02-04T09:09:57;16.00;60.30
62583;DHT22;48641;51.676;5.808;2024-02-04T09:12:23;16.00;60.30
62583;DHT22;48641;51.676;5.808;2024-02-04T09:14:48;16.10;60.40
62583;DHT22;48641;51.676;5.808;2024-02-04T09:17:14;16.00;60.20
62583;DHT22;48641;51.676;5.808;2024-02-04T09:19:39;16.00;60.20
62583;DHT22;48641;51.676;5.808;2024-02-04T09:22:05;16.00;60.20
62583;DHT22;48641;51.676;5.808;2024-02-04T09:24:31;16.00;60.10
62583;DHT22;48641;51.676;5.808;2024-02-04T09:26:57;16.00;60.40
62583;DHT22;48641;51.676;5.808;2024-02-04T09:29:23;16.00;60.30
62583;DHT22;48641;51.676;5.808;2024-02-04T09:31:49;16.00;60.20
62583;DHT22;48641;51.676;5.808;2024-02-04T09:34:19;16.00;60.20
62583;DHT22;48641;51.676;5.808;2024-02-04T09:36:44;16.00;60.10
62583;DHT22;48641;51.676;5.808;2024-02-04T09:39:10;16.00;60.20
62583;DHT22;48641;51.676;5.808;2024-02-04T09:41:36;16.00;60.20
62583;DHT22;48641;51.676;5.808;2024-02-04T09:44:02;16.00;60.10
62583;DHT22;48641;51.676;5.808;2024-02-04T09:46:29;16.00;60.00
62583;DHT22;48641;51.676;5.808;2024-02-04T09:48:55;15.90;60.10
62583;DHT22;48641;51.676;5.808;2024-02-04T09:51:22;16.00;60.30
62583;DHT22;48641;51.676;5.808;2024-02-04T09:53:52;16.00;60.30
62583;DHT22;48641;51.676;5.808;2024-02-04T09:56:18;16.00;60.00
62583;DHT22;48641;51.676;5.808;2024-02-04T09:58:44;16.00;60.20
62583;DHT22;48641;51.676;5.808;2024-02-04T10:01:11;15.90;60.00
62583;DHT22;48641;51.676;5.808;2024-02-04T10:03:37;16.00;60.00
62583;DHT22;48641;51.676;5.808;2024-02-04T10:06:03;15.90;59.90
62583;DHT22;48641;51.676;5.808;2024-02-04T10:08:28;16.00;60.10
62583;DHT22;48641;51.676;5.808;2024-02-04T10:10:54;16.00;60.00
62583;DHT22;48641;51.676;5.808;2024-02-04T10:13:20;16.00;60.20
62583;DHT22;48641;51.676;5.808;2024-02-04T10:15:47;15.90;60.10
62583;DHT22;48641;51.676;5.808;2024-02-04T10:18:13;16.00;60.20
62583;DHT22;48641;51.676;5.808;2024-02-04T10:20:39;16.00;60.10
62583;DHT22;48641;51.676;5.808;2024-02-04T10:23:04;16.00;60.40
62583;DHT22;48641;51.676;5.808;2024-02-04T10:25:30;16.00;60.40
62583;DHT22;48641;51.676;5.808;2024-02-04T10:27:56;16.00;60.50
62583;DHT22;48641;51.676;5.808;2024-02-04T10:30:23;16.00;60.50
62583;DHT22;48641;51.676;5.808;2024-02-04T10:32:53;16.00;60.40
62583;DHT22;48641;51.676;5.808;2024-02-04T10:35:22;16.00;60.70
62583;DHT22;48641;51.676;5.808;2024-02-04T10:37:49;16.00;60.90
62583;DHT22;48641;51.676;5.808;2024-02-04T10:40:16;16.00;60.40
62583;DHT22;48641;51.676;5.808;2024-02-04T10:42:42;16.00;60.50
62583;DHT22;48641;51.676;5.808;2024-02-04T10:45:10;16.00;60.40
62583;DHT22;48641;51.676;5.808;2024-02-04T10:47:37;16.00;60.40
62583;DHT22;48641;51.676;5.808;2024-02-04T10:50:04;16.00;60.10
62583;DHT22;48641;51.676;5.808;2024-02-04T10:52:40;16.00;60.40
62583;DHT22;48641;51.676;5.808;2024-02-04T10:55:11;16.00;60.70
62583;DHT22;48641;51.676;5.808;2024-02-04T10:57:38;16.00;60.20
62583;DHT22;48641;51.676;5.808;2024-02-04T11:00:04;16.00;60.10
62583;DHT22;48641;51.676;5.808;2024-02-04T11:02:35;16.00;60.50
62583;DHT22;48641;51.676;5.808;2024-02-04T11:05:03;16.00;60.20
62583;DHT22;48641;51.676;5.808;2024-02-04T11:07:32;16.00;60.50
62583;DHT22;48641;51.676;5.808;2024-02-04T11:09:58;16.00;60.20
62583;DHT22;48641;51.676;5.808;2024-02-04T11:12:24;16.00;60.00
62583;DHT22;48641;51.676;5.808;2024-02-04T11:14:54;16.00;60.10
62583;DHT22;48641;51.676;5.808;2024-02-04T11:21:19;16.00;59.80
62583;DHT22;48641;51.676;5.808;2024-02-04T11:26:26;16.00;60.00
62583;DHT22;48641;51.676;5.808;2024-02-04T11:28:52;15.90;60.00
62583;DHT22;48641;51.676;5.808;2024-02-04T11:31:18;15.90;60.40
62583;DHT22;48641;51.676;5.808;2024-02-04T11:33:44;16.00;60.40
62583;DHT22;48641;51.676;5.808;2024-02-04T11:36:14;16.00;60.20
62583;DHT22;48641;51.676;5.808;2024-02-04T11:38:40;16.00;60.60
62583;DHT22;48641;51.676;5.808;2024-02-04T11:41:07;16.00;60.40
62583;DHT22;48641;51.676;5.808;2024-02-04T11:43:34;16.00;60.80
62583;DHT22;48641;51.676;5.808;2024-02-04T11:46:03;16.00;60.20
62583;DHT22;48641;51.676;5.808;2024-02-04T11:48:38;16.00;60.40
62583;DHT22;48641;51.676;5.808;2024-02-04T11:51:07;16.00;60.10
62583;DHT22;48641;51.676;5.808;2024-02-04T11:53:33;16.00;60.20
62583;DHT22;48641;51.676;5.808;2024-02-04T11:56:03;16.00;60.60
62583;DHT22;48641;51.676;5.808;2024-02-04T11:58:29;16.00;60.20
62583;DHT22;48641;51.676;5.808;2024-02-04T12:00:56;16.00;60.10
62583;DHT22;48641;51.676;5.808;2024-02-04T12:03:30;16.00;60.60
62583;DHT22;48641;51.676;5.808;2024-02-04T12:05:57;16.00;60.10
62583;DHT22;48641;51.676;5.808;2024-02-04T12:08:23;16.00;60.10
62583;DHT22;48641;51.676;5.808;2024-02-04T12:10:49;16.00;60.00
62583;DHT22;48641;51.676;5.808;2024-02-04T12:13:15;16.00;60.10
62583;DHT22;48641;51.676;5.808;2024-02-04T12:15:41;16.00;60.60
62583;DHT22;48641;51.676;5.808;2024-02-04T12:18:11;16.00;60.20
62583;DHT22;48641;51.676;5.808;2024-02-04T12:20:37;16.10;60.30
62583;DHT22;48641;51.676;5.808;2024-02-04T12:23:04;16.00;60.20
62583;DHT22;48641;51.676;5.808;2024-02-04T12:25:31;16.00;60.30
62583;DHT22;48641;51.676;5.808;2024-02-04T12:28:01;16.10;60.20
62583;DHT22;48641;51.676;5.808;2024-02-04T12:30:28;16.10;60.20
62583;DHT22;48641;51.676;5.808;2024-02-04T12:33:02;16.00;60.40
62583;DHT22;48641;51.676;5.808;2024-02-04T12:35:29;16.10;60.30
62583;DHT22;48641;51.676;5.808;2024-02-04T12:37:56;16.10;60.10
62583;DHT22;48641;51.676;5.808;2024-02-04T12:40:29;16.10;60.20
62583;DHT22;48641;51.676;5.808;2024-02-04T12:43:04;16.10;60.10
62583;DHT22;48641;51.676;5.808;2024-02-04T12:45:30;16.10;60.00
62583;DHT22;48641;51.676;5.808;2024-02-04T12:47:57;16.10;60.10
62583;DHT22;48641;51.676;5.808;2024-02-04T12:50:24;16.10;60.10
62583;DHT22;48641;51.676;5.808;2024-02-04T12:53:05;16.00;60.00
62583;DHT22;48641;51.676;5.808;2024-02-04T12:55:32;16.10;60.00
62583;DHT22;48641;51.676;5.808;2024-02-04T12:58:11;16.10;60.10
62583;DHT22;48641;51.676;5.808;2024-02-04T13:00:38;16.10;60.10
62583;DHT22;48641;51.676;5.808;2024-02-04T13:03:04;16.10;60.00
62583;DHT22;48641;51.676;5.808;2024-02-04T13:05:30;16.00;60.20
62583;DHT22;48641;51.676;5.808;2024-02-04T13:08:00;16.10;60.40
62583;DHT22;48641;51.676;5.808;2024-02-04T13:10:35;16.10;60.40
62583;DHT22;48641;51.676;5.808;2024-02-04T13:13:02;16.10;60.70
62583;DHT22;48641;51.676;5.808;2024-02-04T13:15:29;16.10;60.40
62583;DHT22;48641;51.676;5.808;2024-02-04T13:17:55;16.10;60.20
62583;DHT22;48641;51.676;5.808;2024-02-04T13:20:22;16.10;60.40
62583;DHT22;48641;51.676;5.808;2024-02-04T13:22:48;16.10;60.50
62583;DHT22;48641;51.676;5.808;2024-02-04T13:25:13;16.10;60.30
62583;DHT22;48641;51.676;5.808;2024-02-04T13:27:40;16.10;60.40
62583;DHT22;48641;51.676;5.808;2024-02-04T13:30:06;16.10;61.10
62583;DHT22;48641;51.676;5.808;2024-02-04T13:32:40;16.10;62.60
62583;DHT22;48641;51.676;5.808;2024-02-04T13:35:09;16.10;63.20
62583;DHT22;48641;51.676;5.808;2024-02-04T13:37:45;16.20;63.40
62583;DHT22;48641;51.676;5.808;2024-02-04T13:40:17;16.20;63.40
62583;DHT22;48641;51.676;5.808;2024-02-04T13:42:43;16.20;63.50
62583;DHT22;48641;51.676;5.808;2024-02-04T13:45:09;16.30;63.60
62583;DHT22;48641;51.676;5.808;2024-02-04T13:47:35;16.20;63.60
62583;DHT22;48641;51.676;5.808;2024-02-04T13:50:01;16.30;63.90
62583;DHT22;48641;51.676;5.808;2024-02-04T13:52:28;16.30;63.80
62583;DHT22;48641;51.676;5.808;2024-02-04T13:54:54;16.30;63.80
62583;DHT22;48641;51.676;5.808;2024-02-04T13:57:19;16.30;63.70
62583;DHT22;48641;51.676;5.808;2024-02-04T13:59:45;16.30;63.60
62583;DHT22;48641;51.676;5.808;2024-02-04T14:02:10;16.30;63.60
62583;DHT22;48641;51.676;5.808;2024-02-04T14:04:36;16.30;63.60
62583;DHT22;48641;51.676;5.808;2024-02-04T14:07:02;16.30;63.70
62583;DHT22;48641;51.676;5.808;2024-02-04T14:09:28;16.30;63.70
62583;DHT22;48641;51.676;5.808;2024-02-04T14:11:54;16.30;63.60
62583;DHT22;48641;51.676;5.808;2024-02-04T14:14:22;16.30;63.60
62583;DHT22;48641;51.676;5.808;2024-02-04T14:16:47;16.40;63.60
62583;DHT22;48641;51.676;5.808;2024-02-04T14:19:13;16.30;63.60
62583;DHT22;48641;51.676;5.808;2024-02-04T14:21:40;16.30;63.70
62583;DHT22;48641;51.676;5.808;2024-02-04T14:24:06;16.30;63.60
62583;DHT22;48641;51.676;5.808;2024-02-04T14:26:32;16.30;64.50
62583;DHT22;48641;51.676;5.808;2024-02-04T14:28:58;16.30;63.60
62583;DHT22;48641;51.676;5.808;2024-02-04T14:31:24;16.30;63.60
62583;DHT22;48641;51.676;5.808;2024-02-04T14:33:50;16.40;63.60
62583;DHT22;48641;51.676;5.808;2024-02-04T14:36:16;16.30;63.60
62583;DHT22;48641;51.676;5.808;2024-02-04T14:38:42;16.30;63.60
62583;DHT22;48641;51.676;5.808;2024-02-04T14:41:07;16.40;63.70
62583;DHT22;48641;51.676;5.808;2024-02-04T14:43:35;16.30;63.60
62583;DHT22;48641;51.676;5.808;2024-02-04T14:46:01;16.40;63.60
62583;DHT22;48641;51.676;5.808;2024-02-04T14:48:27;16.40;63.60
62583;DHT22;48641;51.676;5.808;2024-02-04T14:50:52;16.30;63.50
62583;DHT22;48641;51.676;5.808;2024-02-04T14:53:19;16.40;63.60
62583;DHT22;48641;51.676;5.808;2024-02-04T14:55:45;16.40;63.50
62583;DHT22;48641;51.676;5.808;2024-02-04T14:58:11;16.30;63.50
62583;DHT22;48641;51.676;5.808;2024-02-04T15:00:36;16.40;63.60
62583;DHT22;48641;51.676;5.808;2024-02-04T15:03:02;16.40;63.60
62583;DHT22;48641;51.676;5.808;2024-02-04T15:05:28;16.30;63.50
62583;DHT22;48641;51.676;5.808;2024-02-04T15:07:53;16.30;63.50
62583;DHT22;48641;51.676;5.808;2024-02-04T15:10:20;16.30;63.40
62583;DHT22;48641;51.676;5.808;2024-02-04T15:12:45;16.40;63.60
62583;DHT22;48641;51.676;5.808;2024-02-04T15:15:11;16.40;63.80
62583;DHT22;48641;51.676;5.808;2024-02-04T15:17:38;16.30;63.60
62583;DHT22;48641;51.676;5.808;2024-02-04T15:20:04;16.40;63.50
62583;DHT22;48641;51.676;5.808;2024-02-04T15:22:30;16.40;63.50
62583;DHT22;48641;51.676;5.808;2024-02-04T15:24:56;16.40;63.50
62583;DHT22;48641;51.676;5.808;2024-02-04T15:27:24;16.40;63.60
62583;DHT22;48641;51.676;5.808;2024-02-04T15:29:54;16.40;63.90
62583;DHT22;48641;51.676;5.808;2024-02-04T15:32:20;16.40;64.40
62583;DHT22;48641;51.676;5.808;2024-02-04T15:34:46;16.40;64.50
62583;DHT22;48641;51.676;5.808;2024-02-04T15:37:12;16.40;64.70